sensor_id;sensor_type;location;lat;lon;timestamp;pressure;altitude;pressure_sealevel;temperature
45701;BMP280;36277;32.852;-116.998;2023-12-20T00:00:08;99686.13;;;24.85
45701;BMP280;36277;32.852;-116.998;2023-12-20T00:02:35;99683.81;;;24.89
45701;BMP280;36277;32.852;-116.998;2023-12-20T00:05:01;99678.72;;;24.92
45701;BMP280;36277;32.852;-116.998;2023-12-20T00:07:28;99680.88;;;24.97
45701;BMP280;36277;32.852;-116.998;2023-12-20T00:09:54;99669.19;;;25.01
45701;BMP280;36277;32.852;-116.998;2023-12-20T00:12:20;99678.31;;;25.02
45701;BMP280;36277;32.852;-116.998;2023-12-20T00:14:46;99685.34;;;25.04
45701;BMP280;36277;32.852;-116.998;2023-12-20T00:17:13;99678.75;;;25.05
45701;BMP280;36277;32.852;-116.998;2023-12-20T00:19:39;99677.47;;;25.08
45701;BMP280;36277;32.852;-116.998;2023-12-20T00:22:06;99673.00;;;25.07
45701;BMP280;36277;32.852;-116.998;2023-12-20T00:24:32;99681.50;;;25.12
45701;BMP280;36277;32.852;-116.998;2023-12-20T00:26:58;99678.09;;;25.10
45701;BMP280;36277;32.852;-116.998;2023-12-20T00:29:24;99685.97;;;25.13
45701;BMP280;36277;32.852;-116.998;2023-12-20T00:31:51;99691.31;;;25.14
45701;BMP280;36277;32.852;-116.998;2023-12-20T00:34:17;99693.88;;;25.16
45701;BMP280;36277;32.852;-116.998;2023-12-20T00:36:43;99699.41;;;25.16
45701;BMP280;36277;32.852;-116.998;2023-12-20T00:39:09;99701.09;;;25.17
45701;BMP280;36277;32.852;-116.998;2023-12-20T00:41:36;99692.81;;;25.17
45701;BMP280;36277;32.852;-116.998;2023-12-20T00:44:02;99696.00;;;25.20
45701;BMP280;36277;32.852;-116.998;2023-12-20T00:46:28;99697.28;;;25.24
45701;BMP280;36277;32.852;-116.998;2023-12-20T00:48:54;99697.28;;;25.24
45701;BMP280;36277;32.852;-116.998;2023-12-20T00:51:21;99696.22;;;25.19
45701;BMP280;36277;32.852;-116.998;2023-12-20T00:53:49;99706.13;;;24.94
45701;BMP280;36277;32.852;-116.998;2023-12-20T00:56:16;99701.84;;;24.78
45701;BMP280;36277;32.852;-116.998;2023-12-20T00:58:42;99699.06;;;24.72
45701;BMP280;36277;32.852;-116.998;2023-12-20T01:01:08;99690.34;;;24.68
45701;BMP280;36277;32.852;-116.998;2023-12-20T01:03:34;99689.91;;;24.65
45701;BMP280;36277;32.852;-116.998;2023-12-20T01:06:01;99692.91;;;24.70
45701;BMP280;36277;32.852;-116.998;2023-12-20T01:08:28;99688.88;;;24.72
45701;BMP280;36277;32.852;-116.998;2023-12-20T01:10:54;99706.06;;;24.74
45701;BMP280;36277;32.852;-116.998;2023-12-20T01:13:20;99709.47;;;24.76
45701;BMP280;36277;32.852;-116.998;2023-12-20T01:15:46;99709.50;;;24.83
45701;BMP280;36277;32.852;-116.998;2023-12-20T01:18:14;99711.84;;;24.86
45701;BMP280;36277;32.852;-116.998;2023-12-20T01:20:40;99715.25;;;24.88
45701;BMP280;36277;32.852;-116.998;2023-12-20T01:23:06;99726.06;;;24.89
45701;BMP280;36277;32.852;-116.998;2023-12-20T01:25:33;99730.34;;;24.92
45701;BMP280;36277;32.852;-116.998;2023-12-20T01:27:59;99732.03;;;24.93
45701;BMP280;36277;32.852;-116.998;2023-12-20T01:30:25;99741.78;;;24.95
45701;BMP280;36277;32.852;-116.998;2023-12-20T01:32:51;99743.50;;;24.96
45701;BMP280;36277;32.852;-116.998;2023-12-20T01:35:18;99735.63;;;25.00
45701;BMP280;36277;32.852;-116.998;2023-12-20T01:37:44;99740.09;;;25.01
45701;BMP280;36277;32.852;-116.998;2023-12-20T01:40:10;99737.97;;;25.03
45701;BMP280;36277;32.852;-116.998;2023-12-20T01:42:37;99740.56;;;25.04
45701;BMP280;36277;32.852;-116.998;2023-12-20T01:45:03;99737.56;;;25.06
45701;BMP280;36277;32.852;-116.998;2023-12-20T01:47:30;99748.63;;;25.06
45701;BMP280;36277;32.852;-116.998;2023-12-20T01:49:56;99753.06;;;25.07
45701;BMP280;36277;32.852;-116.998;2023-12-20T01:52:23;99756.47;;;25.09
45701;BMP280;36277;32.852;-116.998;2023-12-20T01:54:51;99760.13;;;25.09
45701;BMP280;36277;32.852;-116.998;2023-12-20T01:57:20;99776.25;;;25.12
45701;BMP280;36277;32.852;-116.998;2023-12-20T01:59:47;99763.97;;;25.15
45701;BMP280;36277;32.852;-116.998;2023-12-20T02:02:14;99767.38;;;25.17
45701;BMP280;36277;32.852;-116.998;2023-12-20T02:04:40;99769.09;;;25.18
45701;BMP280;36277;32.852;-116.998;2023-12-20T02:07:07;99776.31;;;25.19
45701;BMP280;36277;32.852;-116.998;2023-12-20T02:09:35;99774.19;;;25.21
45701;BMP280;36277;32.852;-116.998;2023-12-20T02:12:01;99774.19;;;25.21
45701;BMP280;36277;32.852;-116.998;2023-12-20T02:14:27;99772.06;;;25.23
45701;BMP280;36277;32.852;-116.998;2023-12-20T02:16:54;99780.34;;;25.23
45701;BMP280;36277;32.852;-116.998;2023-12-20T02:19:20;99775.44;;;25.25
45701;BMP280;36277;32.852;-116.998;2023-12-20T02:21:47;99774.38;;;25.26
45701;BMP280;36277;32.852;-116.998;2023-12-20T02:24:13;99771.22;;;25.28
45701;BMP280;36277;32.852;-116.998;2023-12-20T02:26:40;99767.38;;;25.29
45701;BMP280;36277;32.852;-116.998;2023-12-20T02:29:07;99770.16;;;25.29
45701;BMP280;36277;32.852;-116.998;2023-12-20T02:31:33;99776.31;;;25.31
45701;BMP280;36277;32.852;-116.998;2023-12-20T02:33:59;99776.13;;;25.33
45701;BMP280;36277;32.852;-116.998;2023-12-20T02:36:25;99782.50;;;25.33
45701;BMP280;36277;32.852;-116.998;2023-12-20T02:38:52;99782.50;;;25.33
45701;BMP280;36277;32.852;-116.998;2023-12-20T02:41:18;99775.06;;;25.34
45701;BMP280;36277;32.852;-116.998;2023-12-20T02:43:45;99769.53;;;25.34
45701;BMP280;36277;32.852;-116.998;2023-12-20T02:46:12;99768.25;;;25.36
45701;BMP280;36277;32.852;-116.998;2023-12-20T02:48:39;99771.25;;;25.35
45701;BMP280;36277;32.852;-116.998;2023-12-20T02:51:06;99777.59;;;25.35
45701;BMP280;36277;32.852;-116.998;2023-12-20T02:53:32;99782.06;;;25.36
45701;BMP280;36277;32.852;-116.998;2023-12-20T02:55:58;99778.03;;;25.39
45701;BMP280;36277;32.852;-116.998;2023-12-20T02:58:24;99765.72;;;25.41
45701;BMP280;36277;32.852;-116.998;2023-12-20T03:00:51;99773.59;;;25.44
45701;BMP280;36277;32.852;-116.998;2023-12-20T03:03:17;99774.66;;;25.43
45701;BMP280;36277;32.852;-116.998;2023-12-20T03:05:43;99777.84;;;25.47
45701;BMP280;36277;32.852;-116.998;2023-12-20T03:08:11;99784.22;;;25.47
45701;BMP280;36277;32.852;-116.998;2023-12-20T03:10:37;99786.13;;;25.47
45701;BMP280;36277;32.852;-116.998;2023-12-20T03:13:03;99790.81;;;25.46
45701;BMP280;36277;32.852;-116.998;2023-12-20T03:15:30;99796.34;;;25.46
45701;BMP280;36277;32.852;-116.998;2023-12-20T03:17:56;99803.34;;;25.49
45701;BMP280;36277;32.852;-116.998;2023-12-20T03:20:24;99810.56;;;25.50
45701;BMP280;36277;32.852;-116.998;2023-12-20T03:22:52;99814.16;;;25.50
45701;BMP280;36277;32.852;-116.998;2023-12-20T03:25:18;99814.16;;;25.50
45701;BMP280;36277;32.852;-116.998;2023-12-20T03:27:44;99808.66;;;25.50
45701;BMP280;36277;32.852;-116.998;2023-12-20T03:30:10;99797.41;;;25.52
45701;BMP280;36277;32.852;-116.998;2023-12-20T03:32:38;99789.94;;;25.52
45701;BMP280;36277;32.852;-116.998;2023-12-20T03:35:05;99775.94;;;25.54
45701;BMP280;36277;32.852;-116.998;2023-12-20T03:37:31;99775.28;;;25.52
45701;BMP280;36277;32.852;-116.998;2023-12-20T03:39:57;99788.88;;;25.53
45701;BMP280;36277;32.852;-116.998;2023-12-20T03:42:24;99800.81;;;25.54
45701;BMP280;36277;32.852;-116.998;2023-12-20T03:44:50;99799.75;;;25.55
45701;BMP280;36277;32.852;-116.998;2023-12-20T03:47:16;99803.34;;;25.55
45701;BMP280;36277;32.852;-116.998;2023-12-20T03:49:42;99811.00;;;25.53
45701;BMP280;36277;32.852;-116.998;2023-12-20T03:52:09;99824.81;;;25.53
45701;BMP280;36277;32.852;-116.998;2023-12-20T03:54:35;99824.81;;;25.53
45701;BMP280;36277;32.852;-116.998;2023-12-20T03:57:02;99812.06;;;25.52
45701;BMP280;36277;32.852;-116.998;2023-12-20T03:59:29;99809.28;;;25.52
45701;BMP280;36277;32.852;-116.998;2023-12-20T04:01:55;99804.19;;;25.49
45701;BMP280;36277;32.852;-116.998;2023-12-20T04:04:21;99792.72;;;25.52
45701;BMP280;36277;32.852;-116.998;2023-12-20T04:06:48;99782.72;;;25.51
45701;BMP280;36277;32.852;-116.998;2023-12-20T04:09:14;99775.06;;;25.53
45701;BMP280;36277;32.852;-116.998;2023-12-20T04:11:40;99781.47;;;25.54
45701;BMP280;36277;32.852;-116.998;2023-12-20T04:14:07;99780.59;;;25.53
45701;BMP280;36277;32.852;-116.998;2023-12-20T04:16:34;99785.06;;;25.54
45701;BMP280;36277;32.852;-116.998;2023-12-20T04:19:00;99787.81;;;25.54
45701;BMP280;36277;32.852;-116.998;2023-12-20T04:21:27;99791.22;;;25.56
45701;BMP280;36277;32.852;-116.998;2023-12-20T04:23:53;99784.44;;;25.59
45701;BMP280;36277;32.852;-116.998;2023-12-20T04:26:19;99781.03;;;25.63
45701;BMP280;36277;32.852;-116.998;2023-12-20T04:28:45;99796.34;;;25.66
45701;BMP280;36277;32.852;-116.998;2023-12-20T04:31:11;99797.19;;;25.66
45701;BMP280;36277;32.852;-116.998;2023-12-20T04:33:38;99809.53;;;25.70
45701;BMP280;36277;32.852;-116.998;2023-12-20T04:36:04;99811.25;;;25.71
45701;BMP280;36277;32.852;-116.998;2023-12-20T04:38:30;99807.41;;;25.72
45701;BMP280;36277;32.852;-116.998;2023-12-20T04:40:57;99807.41;;;25.72
45701;BMP280;36277;32.852;-116.998;2023-12-20T04:43:23;99809.13;;;25.73
45701;BMP280;36277;32.852;-116.998;2023-12-20T04:45:49;99793.16;;;25.75
45701;BMP280;36277;32.852;-116.998;2023-12-20T04:48:15;99801.44;;;25.75
45701;BMP280;36277;32.852;-116.998;2023-12-20T04:50:42;99797.59;;;25.76
45701;BMP280;36277;32.852;-116.998;2023-12-20T04:53:08;99803.38;;;25.75
45701;BMP280;36277;32.852;-116.998;2023-12-20T04:55:34;99809.13;;;25.73
45701;BMP280;36277;32.852;-116.998;2023-12-20T04:58:01;99812.94;;;25.72
45701;BMP280;36277;32.852;-116.998;2023-12-20T05:00:27;99820.59;;;25.70
45701;BMP280;36277;32.852;-116.998;2023-12-20T05:02:53;99822.72;;;25.68
45701;BMP280;36277;32.852;-116.998;2023-12-20T05:05:20;99826.53;;;25.67
45701;BMP280;36277;32.852;-116.998;2023-12-20T05:07:46;99819.94;;;25.62
45701;BMP280;36277;32.852;-116.998;2023-12-20T05:10:13;99814.41;;;25.62
45701;BMP280;36277;32.852;-116.998;2023-12-20T05:12:39;99809.09;;;25.60
45701;BMP280;36277;32.852;-116.998;2023-12-20T05:15:06;99808.03;;;25.61
45701;BMP280;36277;32.852;-116.998;2023-12-20T05:17:32;99812.09;;;25.59
45701;BMP280;36277;32.852;-116.998;2023-12-20T05:19:59;99813.34;;;25.56
45701;BMP280;36277;32.852;-116.998;2023-12-20T05:22:25;99820.56;;;25.57
45701;BMP280;36277;32.852;-116.998;2023-12-20T05:24:53;99815.47;;;25.54
45701;BMP280;36277;32.852;-116.998;2023-12-20T05:27:19;99815.69;;;25.53
45701;BMP280;36277;32.852;-116.998;2023-12-20T05:29:45;99819.28;;;25.53
45701;BMP280;36277;32.852;-116.998;2023-12-20T05:32:12;99825.88;;;25.52
45701;BMP280;36277;32.852;-116.998;2023-12-20T05:34:38;99820.75;;;25.49
45701;BMP280;36277;32.852;-116.998;2023-12-20T05:37:04;99820.75;;;25.49
45701;BMP280;36277;32.852;-116.998;2023-12-20T05:39:30;99809.94;;;25.48
45701;BMP280;36277;32.852;-116.998;2023-12-20T05:41:57;99814.63;;;25.47
45701;BMP280;36277;32.852;-116.998;2023-12-20T05:44:23;99814.63;;;25.47
45701;BMP280;36277;32.852;-116.998;2023-12-20T05:46:49;99817.16;;;25.49
45701;BMP280;36277;32.852;-116.998;2023-12-20T05:49:16;99816.09;;;25.50
45701;BMP280;36277;32.852;-116.998;2023-12-20T05:51:42;99817.38;;;25.47
45701;BMP280;36277;32.852;-116.998;2023-12-20T05:54:09;99817.38;;;25.47
45701;BMP280;36277;32.852;-116.998;2023-12-20T05:56:35;99825.66;;;25.47
45701;BMP280;36277;32.852;-116.998;2023-12-20T05:59:01;99822.91;;;25.47
45701;BMP280;36277;32.852;-116.998;2023-12-20T06:01:28;99818.44;;;25.46
45701;BMP280;36277;32.852;-116.998;2023-12-20T06:03:54;99817.56;;;25.46
45701;BMP280;36277;32.852;-116.998;2023-12-20T06:06:20;99822.25;;;25.45
45701;BMP280;36277;32.852;-116.998;2023-12-20T06:08:46;99813.34;;;25.43
45701;BMP280;36277;32.852;-116.998;2023-12-20T06:11:13;99814.16;;;25.44
45701;BMP280;36277;32.852;-116.998;2023-12-20T06:13:39;99808.00;;;25.42
45701;BMP280;36277;32.852;-116.998;2023-12-20T06:16:06;99812.47;;;25.43
45701;BMP280;36277;32.852;-116.998;2023-12-20T06:18:35;99803.75;;;25.39
45701;BMP280;36277;32.852;-116.998;2023-12-20T06:21:02;99806.53;;;25.39
45701;BMP280;36277;32.852;-116.998;2023-12-20T06:23:29;99803.94;;;25.38
45701;BMP280;36277;32.852;-116.998;2023-12-20T06:25:55;99804.16;;;25.36
45701;BMP280;36277;32.852;-116.998;2023-12-20T06:28:21;99809.91;;;25.35
45701;BMP280;36277;32.852;-116.998;2023-12-20T06:30:48;99805.47;;;25.34
45701;BMP280;36277;32.852;-116.998;2023-12-20T06:33:15;99802.88;;;25.32
45701;BMP280;36277;32.852;-116.998;2023-12-20T06:35:42;99797.34;;;25.32
45701;BMP280;36277;32.852;-116.998;2023-12-20T06:38:08;99797.59;;;25.31
45701;BMP280;36277;32.852;-116.998;2023-12-20T06:40:35;99799.47;;;25.30
45701;BMP280;36277;32.852;-116.998;2023-12-20T06:43:01;99794.19;;;25.29
45701;BMP280;36277;32.852;-116.998;2023-12-20T06:45:27;99787.78;;;25.28
45701;BMP280;36277;32.852;-116.998;2023-12-20T06:47:53;99784.38;;;25.27
45701;BMP280;36277;32.852;-116.998;2023-12-20T06:50:20;99782.69;;;25.26
45701;BMP280;36277;32.852;-116.998;2023-12-20T06:52:47;99782.69;;;25.26
45701;BMP280;36277;32.852;-116.998;2023-12-20T06:55:13;99779.28;;;25.24
45701;BMP280;36277;32.852;-116.998;2023-12-20T06:57:39;99775.44;;;25.25
45701;BMP280;36277;32.852;-116.998;2023-12-20T07:00:06;99786.50;;;25.25
45701;BMP280;36277;32.852;-116.998;2023-12-20T07:02:34;99779.28;;;25.24
45701;BMP280;36277;32.852;-116.998;2023-12-20T07:05:00;99793.06;;;25.24
45701;BMP280;36277;32.852;-116.998;2023-12-20T07:07:27;99790.31;;;25.24
45701;BMP280;36277;32.852;-116.998;2023-12-20T07:09:53;99784.19;;;25.22
45701;BMP280;36277;32.852;-116.998;2023-12-20T07:12:19;99775.91;;;25.22
45701;BMP280;36277;32.852;-116.998;2023-12-20T07:14:46;99778.66;;;25.22
45701;BMP280;36277;32.852;-116.998;2023-12-20T07:17:13;99775.91;;;25.22
45701;BMP280;36277;32.852;-116.998;2023-12-20T07:19:41;99784.38;;;25.20
45701;BMP280;36277;32.852;-116.998;2023-12-20T07:22:08;99786.31;;;25.20
45701;BMP280;36277;32.852;-116.998;2023-12-20T07:24:34;99778.84;;;25.20
45701;BMP280;36277;32.852;-116.998;2023-12-20T07:27:01;99774.59;;;25.18
45701;BMP280;36277;32.852;-116.998;2023-12-20T07:29:27;99767.38;;;25.17
45701;BMP280;36277;32.852;-116.998;2023-12-20T07:31:53;99766.50;;;25.16
45701;BMP280;36277;32.852;-116.998;2023-12-20T07:34:20;99766.50;;;25.16
45701;BMP280;36277;32.852;-116.998;2023-12-20T07:36:47;99770.34;;;25.15
45701;BMP280;36277;32.852;-116.998;2023-12-20T07:39:14;99763.97;;;25.15
45701;BMP280;36277;32.852;-116.998;2023-12-20T07:41:40;99754.16;;;25.12
45701;BMP280;36277;32.852;-116.998;2023-12-20T07:44:07;99755.00;;;25.13
45701;BMP280;36277;32.852;-116.998;2023-12-20T07:46:33;99751.59;;;25.11
45701;BMP280;36277;32.852;-116.998;2023-12-20T07:48:59;99749.91;;;25.10
45701;BMP280;36277;32.852;-116.998;2023-12-20T07:51:25;99739.72;;;25.10
45701;BMP280;36277;32.852;-116.998;2023-12-20T07:53:52;99745.44;;;25.09
45701;BMP280;36277;32.852;-116.998;2023-12-20T07:56:19;99740.97;;;25.08
45701;BMP280;36277;32.852;-116.998;2023-12-20T07:58:46;99731.00;;;25.07
45701;BMP280;36277;32.852;-116.998;2023-12-20T08:01:16;99736.50;;;25.07
45701;BMP280;36277;32.852;-116.998;2023-12-20T08:03:44;99729.50;;;25.04
45701;BMP280;36277;32.852;-116.998;2023-12-20T08:06:10;99731.41;;;25.04
45701;BMP280;36277;32.852;-116.998;2023-12-20T08:08:36;99725.03;;;25.03
45701;BMP280;36277;32.852;-116.998;2023-12-20T08:11:02;99722.47;;;25.02
45701;BMP280;36277;32.852;-116.998;2023-12-20T08:13:29;99728.00;;;25.02
45701;BMP280;36277;32.852;-116.998;2023-12-20T08:15:56;99729.94;;;25.01
45701;BMP280;36277;32.852;-116.998;2023-12-20T08:18:22;99724.59;;;25.00
45701;BMP280;36277;32.852;-116.998;2023-12-20T08:20:49;99718.44;;;24.98
45701;BMP280;36277;32.852;-116.998;2023-12-20T08:23:15;99711.84;;;24.99
45701;BMP280;36277;32.852;-116.998;2023-12-20T08:25:42;99717.81;;;24.96
45701;BMP280;36277;32.852;-116.998;2023-12-20T08:28:08;99709.53;;;24.96
45701;BMP280;36277;32.852;-116.998;2023-12-20T08:30:34;99707.84;;;24.95
45701;BMP280;36277;32.852;-116.998;2023-12-20T08:33:01;99713.34;;;24.95
45701;BMP280;36277;32.852;-116.998;2023-12-20T08:35:27;99704.44;;;24.93
45701;BMP280;36277;32.852;-116.998;2023-12-20T08:37:54;99695.28;;;24.92
45701;BMP280;36277;32.852;-116.998;2023-12-20T08:40:20;99701.03;;;24.91
45701;BMP280;36277;32.852;-116.998;2023-12-20T08:42:47;99694.63;;;24.90
45701;BMP280;36277;32.852;-116.998;2023-12-20T08:45:13;99694.84;;;24.89
45701;BMP280;36277;32.852;-116.998;2023-12-20T08:47:39;99689.34;;;24.89
45701;BMP280;36277;32.852;-116.998;2023-12-20T08:50:07;99691.22;;;24.88
45701;BMP280;36277;32.852;-116.998;2023-12-20T08:52:33;99692.28;;;24.87
45701;BMP280;36277;32.852;-116.998;2023-12-20T08:54:59;99692.28;;;24.87
45701;BMP280;36277;32.852;-116.998;2023-12-20T08:57:26;99698.03;;;24.86
45701;BMP280;36277;32.852;-116.998;2023-12-20T08:59:52;99694.41;;;24.85
45701;BMP280;36277;32.852;-116.998;2023-12-20T09:02:18;99691.88;;;24.84
45701;BMP280;36277;32.852;-116.998;2023-12-20T09:04:45;99692.94;;;24.83
45701;BMP280;36277;32.852;-116.998;2023-12-20T09:07:24;99702.06;;;24.83
45701;BMP280;36277;32.852;-116.998;2023-12-20T09:09:52;99698.66;;;24.81
45701;BMP280;36277;32.852;-116.998;2023-12-20T09:12:19;99699.72;;;24.80
45701;BMP280;36277;32.852;-116.998;2023-12-20T09:14:47;99704.38;;;24.80
45701;BMP280;36277;32.852;-116.998;2023-12-20T09:17:13;99699.09;;;24.78
45701;BMP280;36277;32.852;-116.998;2023-12-20T09:19:40;99698.44;;;24.76
45701;BMP280;36277;32.852;-116.998;2023-12-20T09:22:06;99699.28;;;24.77
45701;BMP280;36277;32.852;-116.998;2023-12-20T09:24:33;99698.44;;;24.76
45701;BMP280;36277;32.852;-116.998;2023-12-20T09:26:59;99698.63;;;24.75
45701;BMP280;36277;32.852;-116.998;2023-12-20T09:29:25;99706.06;;;24.74
45701;BMP280;36277;32.852;-116.998;2023-12-20T09:31:52;99702.44;;;24.74
45701;BMP280;36277;32.852;-116.998;2023-12-20T09:34:18;99707.97;;;24.74
45701;BMP280;36277;32.852;-116.998;2023-12-20T09:36:44;99709.88;;;24.73
45701;BMP280;36277;32.852;-116.998;2023-12-20T09:39:17;99707.13;;;24.73
45701;BMP280;36277;32.852;-116.998;2023-12-20T09:42:04;99700.13;;;24.71
45701;BMP280;36277;32.852;-116.998;2023-12-20T09:44:34;99709.47;;;24.70
45701;BMP280;36277;32.852;-116.998;2023-12-20T09:47:03;99705.84;;;24.69
45701;BMP280;36277;32.852;-116.998;2023-12-20T09:49:30;99705.19;;;24.67
45701;BMP280;36277;32.852;-116.998;2023-12-20T09:51:57;99698.84;;;24.67
45701;BMP280;36277;32.852;-116.998;2023-12-20T09:54:23;99702.66;;;24.66
45701;BMP280;36277;32.852;-116.998;2023-12-20T09:56:50;99709.00;;;24.66
45701;BMP280;36277;32.852;-116.998;2023-12-20T09:59:16;99705.59;;;24.64
45701;BMP280;36277;32.852;-116.998;2023-12-20T10:01:43;99704.78;;;24.64
45701;BMP280;36277;32.852;-116.998;2023-12-20T10:04:11;99697.56;;;24.63
45701;BMP280;36277;32.852;-116.998;2023-12-20T10:06:40;99695.84;;;24.62
45701;BMP280;36277;32.852;-116.998;2023-12-20T10:09:06;99695.84;;;24.62
45701;BMP280;36277;32.852;-116.998;2023-12-20T10:11:35;99694.78;;;24.63
45701;BMP280;36277;32.852;-116.998;2023-12-20T10:14:04;99705.19;;;24.61
45701;BMP280;36277;32.852;-116.998;2023-12-20T10:16:31;99701.78;;;24.59
45701;BMP280;36277;32.852;-116.998;2023-12-20T10:18:58;99710.06;;;24.59
45701;BMP280;36277;32.852;-116.998;2023-12-20T10:21:28;99703.88;;;24.57
45701;BMP280;36277;32.852;-116.998;2023-12-20T10:23:56;99700.06;;;24.58
45701;BMP280;36277;32.852;-116.998;2023-12-20T10:26:24;99698.38;;;24.57
45701;BMP280;36277;32.852;-116.998;2023-12-20T10:28:55;99703.88;;;24.57
45701;BMP280;36277;32.852;-116.998;2023-12-20T10:31:28;99697.53;;;24.56
45701;BMP280;36277;32.852;-116.998;2023-12-20T10:33:58;99698.78;;;24.54
45701;BMP280;36277;32.852;-116.998;2023-12-20T10:36:26;99699.00;;;24.52
45701;BMP280;36277;32.852;-116.998;2023-12-20T10:38:54;99701.75;;;24.52
45701;BMP280;36277;32.852;-116.998;2023-12-20T10:41:26;99705.16;;;24.54
45701;BMP280;36277;32.852;-116.998;2023-12-20T10:44:00;99706.41;;;24.52
45701;BMP280;36277;32.852;-116.998;2023-12-20T10:46:28;99701.94;;;24.51
45701;BMP280;36277;32.852;-116.998;2023-12-20T10:48:56;99704.94;;;24.49
45701;BMP280;36277;32.852;-116.998;2023-12-20T10:51:23;99707.69;;;24.49
45701;BMP280;36277;32.852;-116.998;2023-12-20T10:53:53;99706.81;;;24.49
45701;BMP280;36277;32.852;-116.998;2023-12-20T10:56:20;99707.03;;;24.47
45701;BMP280;36277;32.852;-116.998;2023-12-20T10:58:50;99696.19;;;24.46
45701;BMP280;36277;32.852;-116.998;2023-12-20T11:01:18;99701.72;;;24.46
45701;BMP280;36277;32.852;-116.998;2023-12-20T11:03:49;99701.72;;;24.46
45701;BMP280;36277;32.852;-116.998;2023-12-20T11:17:09;99709.75;;;24.41
45701;BMP280;36277;32.852;-116.998;2023-12-20T11:22:27;99691.03;;;24.36
45701;BMP280;36277;32.852;-116.998;2023-12-20T11:25:02;99695.72;;;24.36
45701;BMP280;36277;32.852;-116.998;2023-12-20T11:27:30;99694.22;;;24.33
45701;BMP280;36277;32.852;-116.998;2023-12-20T11:29:57;99703.34;;;24.34
45701;BMP280;36277;32.852;-116.998;2023-12-20T11:34:51;99698.66;;;24.34
45701;BMP280;36277;32.852;-116.998;2023-12-20T11:37:20;99696.13;;;24.33
45701;BMP280;36277;32.852;-116.998;2023-12-20T11:39:56;99687.84;;;24.33
45701;BMP280;36277;32.852;-116.998;2023-12-20T11:42:26;99686.56;;;24.29
45701;BMP280;36277;32.852;-116.998;2023-12-20T11:44:53;99691.00;;;24.30
45701;BMP280;36277;32.852;-116.998;2023-12-20T11:47:19;99689.31;;;24.29
45701;BMP280;36277;32.852;-116.998;2023-12-20T11:49:49;99692.94;;;24.29
45701;BMP280;36277;32.852;-116.998;2023-12-20T11:52:17;99692.28;;;24.27
45701;BMP280;36277;32.852;-116.998;2023-12-20T11:54:43;99701.41;;;24.28
45701;BMP280;36277;32.852;-116.998;2023-12-20T11:57:09;99695.22;;;24.26
45701;BMP280;36277;32.852;-116.998;2023-12-20T11:59:36;99705.22;;;24.27
45701;BMP280;36277;32.852;-116.998;2023-12-20T12:02:02;99703.50;;;24.26
45701;BMP280;36277;32.852;-116.998;2023-12-20T12:04:29;99704.56;;;24.25
45701;BMP280;36277;32.852;-116.998;2023-12-20T12:06:55;99702.03;;;24.23
45701;BMP280;36277;32.852;-116.998;2023-12-20T12:09:21;99709.44;;;24.23
45701;BMP280;36277;32.852;-116.998;2023-12-20T12:11:47;99704.13;;;24.21
45701;BMP280;36277;32.852;-116.998;2023-12-20T12:14:14;99703.06;;;24.22
45701;BMP280;36277;32.852;-116.998;2023-12-20T12:16:44;99707.72;;;24.22
45701;BMP280;36277;32.852;-116.998;2023-12-20T12:19:23;99707.09;;;24.20
45701;BMP280;36277;32.852;-116.998;2023-12-20T12:21:51;99711.97;;;24.18
45701;BMP280;36277;32.852;-116.998;2023-12-20T12:24:20;99708.34;;;24.17
45701;BMP280;36277;32.852;-116.998;2023-12-20T12:26:52;99700.94;;;24.18
45701;BMP280;36277;32.852;-116.998;2023-12-20T12:29:19;99705.16;;;24.14
45701;BMP280;36277;32.852;-116.998;2023-12-20T12:31:45;99707.91;;;24.14
45701;BMP280;36277;32.852;-116.998;2023-12-20T12:34:11;99707.03;;;24.13
45701;BMP280;36277;32.852;-116.998;2023-12-20T12:36:37;99708.97;;;24.13
45701;BMP280;36277;32.852;-116.998;2023-12-20T12:39:04;99715.53;;;24.12
45701;BMP280;36277;32.852;-116.998;2023-12-20T12:41:31;99720.19;;;24.12
45701;BMP280;36277;32.852;-116.998;2023-12-20T12:43:57;99721.25;;;24.11
45701;BMP280;36277;32.852;-116.998;2023-12-20T12:46:23;99727.81;;;24.10
45701;BMP280;36277;32.852;-116.998;2023-12-20T12:48:49;99722.28;;;24.10
45701;BMP280;36277;32.852;-116.998;2023-12-20T12:51:16;99722.50;;;24.08
45701;BMP280;36277;32.852;-116.998;2023-12-20T12:53:42;99728.84;;;24.09
45701;BMP280;36277;32.852;-116.998;2023-12-20T12:56:08;99728.25;;;24.07
45701;BMP280;36277;32.852;-116.998;2023-12-20T12:58:35;99728.41;;;24.05
45701;BMP280;36277;32.852;-116.998;2023-12-20T13:01:01;99721.22;;;24.04
45701;BMP280;36277;32.852;-116.998;2023-12-20T13:03:29;99731.19;;;24.05
45701;BMP280;36277;32.852;-116.998;2023-12-20T13:05:55;99727.59;;;24.05
45701;BMP280;36277;32.852;-116.998;2023-12-20T13:08:22;99725.00;;;24.03
45701;BMP280;36277;32.852;-116.998;2023-12-20T13:10:48;99724.19;;;24.03
45701;BMP280;36277;32.852;-116.998;2023-12-20T13:13:15;99729.03;;;24.01
45701;BMP280;36277;32.852;-116.998;2023-12-20T13:15:41;99732.63;;;24.01
45701;BMP280;36277;32.852;-116.998;2023-12-20T13:18:07;99750.22;;;24.00
45701;BMP280;36277;32.852;-116.998;2023-12-20T13:20:34;99743.00;;;23.99
45701;BMP280;36277;32.852;-116.998;2023-12-20T13:23:00;99748.53;;;23.99
45701;BMP280;36277;32.852;-116.998;2023-12-20T13:25:26;99748.75;;;23.98
45701;BMP280;36277;32.852;-116.998;2023-12-20T13:27:53;99746.81;;;23.98
45701;BMP280;36277;32.852;-116.998;2023-12-20T13:30:19;99750.63;;;23.97
45701;BMP280;36277;32.852;-116.998;2023-12-20T13:32:46;99759.13;;;23.96
45701;BMP280;36277;32.852;-116.998;2023-12-20T13:35:12;99762.91;;;23.95
45701;BMP280;36277;32.852;-116.998;2023-12-20T13:37:39;99756.56;;;23.94
45701;BMP280;36277;32.852;-116.998;2023-12-20T13:40:05;99756.56;;;23.94
45701;BMP280;36277;32.852;-116.998;2023-12-20T13:42:32;99765.91;;;23.93
45701;BMP280;36277;32.852;-116.998;2023-12-20T13:44:58;99757.81;;;23.92